Main page
METAR-TAF:

METAR-TAF

Airports :

Gao International Airport

Gao, Mali

latitude: 16-16N, longitude: 000-03W, elevation: 265 m

METAR: missing

Time: 20:38 (20:38 UTC)

Forecast

The report was made 3 hours and 38 minutes ago, at 17:00 UTC
Forecast valid from 22 at 18 UTC to 23 at 18 UTC
Wind 10 kt from the Northeast with gusts up to 20 kt
Visibility: 6000 m
Temporary
from 23 at 06 UTC to 23 at 12 UTC
Visibility: 2000 m
Blowing dust

TAF: GAGO 221700Z 2218/2318 04010G20KT 6000 NSC TEMPO 2306/2312 2000 BLDU

Weather observations and forecasts of more than 4000 airports (METAR and TAF reports).

The available stations are represented by yellow and red dots on the map.

Hover mouse over dot to see the name of the station.

Then click to see weather observations and forecasts.

To change the map : click on the green buttons with a black cross to zoom in, on the green button with a dash to zoom out, or on the green arrows for adjacent maps.


METAR-TAF: